createdAt,value
2017-06-12T00:00:41.312Z,67.50
2017-06-12T00:03:07.581Z,67.60
2017-06-12T00:05:33.901Z,68.90
2017-06-12T00:08:00.148Z,68.80
2017-06-12T00:10:26.476Z,68.50
2017-06-12T00:12:53.113Z,68.80
2017-06-12T00:15:19.756Z,68.90
2017-06-12T00:17:46.428Z,68.60
2017-06-12T00:20:12.714Z,68.60
2017-06-12T00:22:38.968Z,69.00
2017-06-12T00:25:05.236Z,69.20
2017-06-12T00:27:31.565Z,70.00
2017-06-12T00:29:57.828Z,69.00
2017-06-12T00:32:24.104Z,69.60
2017-06-12T00:34:50.353Z,70.50
2017-06-12T00:37:16.624Z,70.90
2017-06-12T00:39:43.238Z,70.90
2017-06-12T00:42:09.525Z,70.90
2017-06-12T00:44:35.772Z,70.50
2017-06-12T00:47:02.023Z,71.30
2017-06-12T00:49:28.378Z,69.80
2017-06-12T00:51:54.642Z,71.10
2017-06-12T00:54:20.921Z,70.60
2017-06-12T00:56:47.222Z,71.40
2017-06-12T00:59:13.469Z,71.60
2017-06-12T01:01:39.749Z,71.90
2017-06-12T01:04:06.069Z,72.20
2017-06-12T01:06:32.364Z,72.50
2017-06-12T01:08:58.630Z,72.70
2017-06-12T01:11:24.915Z,72.50
2017-06-12T01:13:51.179Z,72.30
2017-06-12T01:16:17.448Z,72.50
2017-06-12T01:18:43.933Z,72.80
2017-06-12T01:21:10.574Z,73.00
2017-06-12T01:23:37.251Z,73.30
2017-06-12T01:26:03.574Z,73.50
2017-06-12T01:28:29.860Z,73.50
2017-06-12T01:30:56.150Z,73.00
2017-06-12T01:33:22.424Z,73.10
2017-06-12T01:35:48.704Z,73.40
2017-06-12T01:38:14.968Z,73.50
2017-06-12T01:40:41.266Z,73.60
2017-06-12T01:43:07.565Z,73.80
2017-06-12T01:45:33.853Z,74.10
2017-06-12T01:48:00.308Z,74.30
2017-06-12T01:50:26.944Z,73.80
2017-06-12T01:52:53.647Z,74.10
2017-06-12T01:55:19.941Z,74.10
2017-06-12T01:57:46.449Z,74.20
2017-06-12T02:00:13.121Z,75.00
2017-06-12T02:02:39.393Z,75.00
2017-06-12T02:05:05.696Z,74.90
2017-06-12T02:07:31.982Z,74.70
2017-06-12T02:09:58.649Z,73.90
2017-06-12T02:12:24.917Z,74.00
2017-06-12T02:14:51.213Z,74.50
2017-06-12T02:17:17.481Z,74.00
2017-06-12T02:19:43.744Z,73.80
2017-06-12T02:22:10.402Z,73.70
2017-06-12T02:24:36.799Z,73.70
2017-06-12T02:27:03.421Z,74.50
2017-06-12T02:29:29.705Z,74.50
2017-06-12T02:31:55.944Z,73.90
2017-06-12T02:34:22.217Z,73.70
2017-06-12T02:36:48.493Z,74.00
2017-06-12T02:39:14.786Z,74.30
2017-06-12T02:41:41.449Z,74.10
2017-06-12T02:44:07.704Z,74.10
2017-06-12T02:46:34.080Z,74.00
2017-06-12T02:49:00.719Z,74.40
2017-06-12T02:51:27.013Z,74.40
2017-06-12T02:53:53.248Z,73.90
2017-06-12T02:56:19.547Z,74.40
2017-06-12T02:58:45.788Z,74.00
2017-06-12T03:01:12.044Z,73.50
2017-06-12T03:03:38.323Z,73.70
2017-06-12T03:06:04.573Z,73.70
2017-06-12T03:08:30.853Z,73.80
2017-06-12T03:10:57.121Z,74.10
2017-06-12T03:13:23.409Z,74.10
2017-06-12T03:15:49.648Z,74.00
2017-06-12T03:18:16.276Z,73.80
2017-06-12T03:20:42.933Z,73.80
2017-06-12T03:23:09.187Z,73.80
2017-06-12T03:25:35.453Z,73.80
2017-06-12T03:28:01.734Z,74.30
2017-06-12T03:30:28.027Z,74.10
2017-06-12T03:32:54.463Z,74.00
2017-06-12T03:35:21.117Z,74.10
2017-06-12T03:37:47.389Z,74.20
2017-06-12T03:40:13.651Z,73.90
2017-06-12T03:42:39.934Z,74.00
2017-06-12T03:45:06.192Z,74.00
2017-06-12T03:47:32.473Z,74.00
2017-06-12T03:49:58.742Z,74.10
2017-06-12T03:52:24.999Z,73.90
2017-06-12T03:54:51.269Z,73.30
2017-06-12T03:57:17.534Z,73.30
2017-06-12T03:59:43.797Z,73.30
2017-06-12T04:02:10.436Z,73.10
2017-06-12T04:04:37.101Z,72.80
2017-06-12T04:07:03.369Z,72.80
2017-06-12T04:09:29.602Z,72.80
2017-06-12T04:11:55.869Z,72.90
2017-06-12T04:14:22.113Z,73.00
2017-06-12T04:16:48.435Z,72.90
2017-06-12T04:19:14.684Z,73.00
2017-06-12T04:21:40.920Z,72.50
2017-06-12T04:24:07.178Z,72.90
2017-06-12T04:26:33.523Z,72.30
2017-06-12T04:29:00.180Z,71.60
2017-06-12T04:31:26.459Z,71.60
2017-06-12T04:33:52.720Z,71.50
2017-06-12T04:36:19.001Z,70.60
2017-06-12T04:38:45.287Z,70.80
2017-06-12T04:41:11.573Z,70.90
2017-06-12T04:43:37.836Z,71.00
2017-06-12T04:46:04.137Z,70.60
2017-06-12T04:48:30.380Z,71.10
2017-06-12T04:50:56.683Z,71.00
2017-06-12T04:53:22.957Z,70.30
2017-06-12T04:55:49.217Z,71.20
2017-06-12T04:58:15.508Z,69.80
2017-06-12T05:00:42.164Z,69.10
2017-06-12T05:03:08.453Z,69.10
2017-06-12T05:05:34.712Z,68.50
2017-06-12T05:08:00.995Z,68.80
2017-06-12T05:10:27.291Z,68.30
2017-06-12T05:12:53.534Z,67.90
2017-06-12T05:15:19.926Z,68.40
2017-06-12T05:17:46.555Z,67.30
2017-06-12T05:20:12.904Z,67.30
2017-06-12T05:22:39.186Z,67.40
2017-06-12T05:25:05.436Z,67.30
2017-06-12T05:27:31.723Z,67.70
2017-06-12T05:29:57.969Z,68.70
2017-06-12T05:32:24.252Z,67.60
2017-06-12T05:34:50.533Z,67.30
2017-06-12T05:37:17.094Z,67.30
2017-06-12T05:39:43.360Z,67.60
2017-06-12T05:42:09.663Z,67.20
2017-06-12T05:44:36.313Z,67.30
2017-06-12T05:47:03.554Z,67.30
2017-06-12T05:49:30.195Z,66.80
2017-06-12T05:51:56.799Z,66.40
2017-06-12T05:54:23.100Z,66.40
2017-06-12T05:56:49.406Z,66.40
2017-06-12T05:59:15.682Z,66.40
2017-06-12T06:01:41.961Z,65.90
2017-06-12T06:04:08.597Z,66.50
2017-06-12T06:06:35.245Z,66.30
2017-06-12T06:09:01.652Z,66.30
2017-06-12T06:11:28.495Z,67.40
2017-06-12T06:13:54.782Z,67.40
2017-06-12T06:16:21.045Z,66.90
2017-06-12T06:18:47.331Z,66.40
2017-06-12T06:21:13.633Z,67.10
2017-06-12T06:23:39.904Z,67.00
2017-06-12T06:26:06.155Z,66.10
2017-06-12T06:28:32.412Z,66.00
2017-06-12T06:30:58.681Z,67.30
2017-06-12T06:33:24.978Z,66.10
2017-06-12T06:35:51.264Z,66.60
2017-06-12T06:38:17.544Z,67.70
2017-06-12T06:40:43.848Z,67.10
2017-06-12T06:43:10.492Z,67.20
2017-06-12T06:45:36.741Z,67.20
2017-06-12T06:48:02.996Z,68.70
2017-06-12T06:50:29.257Z,67.30
2017-06-12T06:52:55.556Z,67.10
2017-06-12T06:55:21.817Z,66.90
2017-06-12T06:57:48.097Z,67.10
2017-06-12T07:00:14.386Z,68.30
2017-06-12T07:02:40.644Z,67.50
2017-06-12T07:05:06.937Z,66.60
2017-06-12T07:07:33.184Z,67.20
2017-06-12T07:09:59.891Z,67.50
2017-06-12T07:12:26.128Z,67.50
2017-06-12T07:14:52.380Z,67.70
2017-06-12T07:17:18.656Z,68.20
2017-06-12T07:19:44.930Z,68.60
2017-06-12T07:22:11.604Z,68.00
2017-06-12T07:24:37.860Z,68.00
2017-06-12T07:27:04.164Z,67.00
2017-06-12T07:29:30.431Z,66.70
2017-06-12T07:31:56.698Z,66.40
2017-06-12T07:34:23.412Z,65.50
2017-06-12T07:36:49.686Z,65.50
2017-06-12T07:39:15.964Z,66.00
2017-06-12T07:41:42.225Z,64.20
2017-06-12T07:44:08.947Z,63.20
2017-06-12T07:46:35.190Z,61.30
2017-06-12T07:49:01.462Z,61.50
2017-06-12T07:51:27.940Z,59.20
2017-06-12T07:53:54.592Z,60.30
2017-06-12T07:56:21.234Z,59.90
2017-06-12T07:58:47.504Z,59.90
2017-06-12T08:01:14.174Z,59.40
2017-06-12T08:03:40.514Z,59.50
2017-06-12T08:06:06.777Z,60.00
2017-06-12T08:08:33.154Z,59.70
2017-06-12T08:10:59.399Z,61.10
2017-06-12T08:13:25.665Z,59.80
2017-06-12T08:15:51.948Z,61.40
2017-06-12T08:18:18.245Z,60.10
2017-06-12T08:20:44.501Z,60.00
2017-06-12T08:23:10.776Z,59.50
2017-06-12T08:25:37.069Z,59.30
2017-06-12T08:28:04.153Z,59.70
2017-06-12T08:30:30.420Z,59.30
2017-06-12T08:32:56.684Z,59.10
2017-06-12T08:35:23.200Z,59.90
2017-06-12T08:37:49.474Z,59.40
2017-06-12T08:40:15.750Z,59.80
2017-06-12T08:42:42.045Z,61.10
2017-06-12T08:45:08.312Z,61.30
2017-06-12T08:47:34.597Z,60.80
2017-06-12T08:50:00.860Z,60.10
2017-06-12T08:52:27.168Z,60.60
2017-06-12T08:54:53.441Z,58.80
2017-06-12T08:57:19.702Z,58.30
2017-06-12T08:59:46.013Z,57.50
2017-06-12T09:02:12.261Z,58.70
2017-06-12T09:04:38.875Z,58.60
2017-06-12T09:07:05.132Z,57.40
2017-06-12T09:09:31.404Z,57.80
2017-06-12T09:11:57.675Z,56.50
2017-06-12T09:14:23.950Z,57.10
2017-06-12T09:16:50.241Z,57.60
2017-06-12T09:19:16.864Z,58.20
2017-06-12T09:21:43.510Z,55.80
2017-06-12T09:24:10.337Z,54.70
2017-06-12T09:26:36.952Z,53.80
2017-06-12T09:29:03.221Z,53.80
2017-06-12T09:31:29.873Z,54.20
2017-06-12T09:33:56.196Z,54.20
2017-06-12T09:36:22.500Z,53.20
2017-06-12T09:38:48.756Z,53.00
2017-06-12T09:41:15.032Z,54.90
2017-06-12T09:43:41.293Z,53.40
2017-06-12T09:46:07.617Z,54.10
2017-06-12T09:48:34.255Z,55.80
2017-06-12T09:51:00.542Z,55.80
2017-06-12T09:53:26.833Z,52.20
2017-06-12T09:55:53.085Z,54.70
2017-06-12T09:58:19.401Z,54.50
2017-06-12T10:00:45.669Z,52.40
2017-06-12T10:03:11.973Z,51.70
2017-06-12T10:05:38.228Z,52.20
2017-06-12T10:08:04.532Z,51.90
2017-06-12T10:10:30.821Z,51.70
2017-06-12T10:12:57.065Z,52.40
2017-06-12T10:15:23.336Z,52.60
2017-06-12T10:17:49.585Z,52.60
2017-06-12T10:20:15.876Z,54.40
2017-06-12T10:22:42.176Z,52.50
2017-06-12T10:25:08.477Z,50.30
2017-06-12T10:27:34.738Z,48.90
2017-06-12T10:30:01.391Z,49.00
2017-06-12T10:32:27.670Z,49.00
2017-06-12T10:34:54.023Z,50.40
2017-06-12T10:37:20.672Z,50.60
2017-06-12T10:39:47.285Z,48.00
2017-06-12T10:42:13.560Z,48.00
2017-06-12T10:44:39.833Z,46.50
2017-06-12T10:47:06.187Z,47.00
2017-06-12T10:49:33.029Z,49.90
2017-06-12T10:51:59.637Z,49.30
2017-06-12T10:54:25.920Z,49.30
2017-06-12T10:56:52.208Z,52.30
2017-06-12T10:59:18.481Z,52.90
2017-06-12T11:01:44.761Z,52.60
2017-06-12T11:04:11.025Z,52.50
2017-06-12T11:06:37.708Z,48.80
2017-06-12T11:09:04.041Z,48.80
2017-06-12T11:11:30.354Z,50.00
2017-06-12T11:13:56.671Z,50.10
2017-06-12T11:16:22.934Z,50.00
2017-06-12T11:18:49.233Z,49.70
2017-06-12T11:21:15.631Z,49.40
2017-06-12T11:23:42.678Z,49.40
2017-06-12T11:26:08.958Z,49.60
2017-06-12T11:28:40.205Z,47.50
2017-06-12T11:31:06.507Z,47.30
2017-06-12T11:33:32.752Z,45.90
2017-06-12T11:35:59.149Z,45.90
2017-06-12T11:38:25.985Z,44.20
2017-06-12T11:40:52.796Z,44.80
2017-06-12T11:43:19.180Z,44.90
2017-06-12T11:45:45.693Z,45.20
2017-06-12T11:48:11.999Z,46.30
2017-06-12T11:50:38.265Z,45.30
2017-06-12T11:53:04.542Z,46.90
2017-06-12T11:55:30.812Z,47.40
2017-06-12T11:57:57.477Z,45.90
2017-06-12T12:00:23.721Z,45.90
2017-06-12T12:02:50.045Z,45.90
2017-06-12T12:05:16.327Z,47.80
2017-06-12T12:07:42.576Z,44.90
2017-06-12T12:10:09.246Z,44.30
2017-06-12T12:12:35.513Z,44.30
2017-06-12T12:15:01.784Z,44.10
2017-06-12T12:17:28.560Z,43.10
2017-06-12T12:19:54.834Z,42.10
2017-06-12T12:22:21.113Z,43.60
2017-06-12T12:24:47.373Z,44.30
2017-06-12T12:27:13.661Z,43.80
2017-06-12T12:29:39.942Z,43.00
2017-06-12T12:32:06.240Z,41.90
2017-06-12T12:34:32.541Z,41.30
2017-06-12T12:36:58.789Z,41.90
2017-06-12T12:39:25.061Z,42.70
2017-06-12T12:41:51.330Z,41.40
2017-06-12T12:44:17.592Z,39.90
2017-06-12T12:46:43.885Z,38.20
2017-06-12T12:49:10.193Z,36.90
2017-06-12T12:51:37.312Z,35.60
2017-06-12T12:54:03.562Z,35.10
2017-06-12T12:56:30.208Z,34.20
2017-06-12T12:58:56.840Z,32.90
2017-06-12T13:01:23.511Z,32.20
2017-06-12T13:03:49.792Z,32.20
2017-06-12T13:06:16.096Z,33.60
2017-06-12T13:08:42.361Z,34.30
2017-06-12T13:11:10.259Z,35.40
2017-06-12T13:13:36.576Z,32.20
2017-06-12T13:16:02.854Z,33.00
2017-06-12T13:18:29.120Z,32.00
2017-06-12T13:20:55.377Z,31.80
2017-06-12T13:23:21.704Z,31.20
2017-06-12T13:25:47.954Z,31.00
2017-06-12T13:28:14.223Z,30.50
2017-06-12T13:30:40.544Z,30.50
2017-06-12T13:33:06.807Z,30.40
2017-06-12T13:35:33.100Z,29.60
2017-06-12T13:37:59.428Z,29.10
2017-06-12T13:40:25.705Z,28.10
2017-06-12T13:42:53.266Z,29.30
2017-06-12T13:45:19.673Z,29.30
2017-06-12T13:47:45.925Z,29.60
2017-06-12T13:50:12.334Z,29.40
2017-06-12T13:52:38.997Z,27.60
2017-06-12T13:55:05.269Z,27.60
2017-06-12T13:57:31.557Z,28.60
2017-06-12T13:59:57.849Z,27.70
2017-06-12T14:02:24.755Z,27.40
2017-06-12T14:04:51.033Z,26.70
2017-06-12T14:07:17.304Z,27.20
2017-06-12T14:09:43.799Z,27.10
2017-06-12T14:12:10.450Z,26.70
2017-06-12T14:14:37.080Z,27.10
2017-06-12T14:17:03.730Z,24.70
2017-06-12T14:19:29.968Z,24.70
2017-06-12T14:21:56.249Z,25.80
2017-06-12T14:24:22.524Z,24.50
2017-06-12T14:26:48.781Z,25.00
2017-06-12T14:29:15.053Z,24.00
2017-06-12T14:31:41.321Z,24.70
2017-06-12T14:34:07.714Z,23.80
2017-06-12T14:36:34.857Z,24.30
2017-06-12T14:39:01.101Z,22.80
2017-06-12T14:41:28.168Z,23.30
2017-06-12T14:43:54.416Z,23.00
2017-06-12T14:46:20.709Z,23.40
2017-06-12T14:48:47.130Z,23.30
2017-06-12T14:51:14.048Z,23.90
2017-06-12T14:53:40.335Z,23.90
2017-06-12T14:56:06.585Z,23.60
2017-06-12T14:58:32.869Z,23.10
2017-06-12T15:00:59.515Z,23.60
2017-06-12T15:03:26.208Z,23.50
2017-06-12T15:05:52.479Z,23.50
2017-06-12T15:08:18.802Z,23.10
2017-06-12T15:10:45.586Z,24.10
2017-06-12T15:13:11.861Z,24.10
2017-06-12T15:15:38.174Z,24.00
2017-06-12T15:18:04.457Z,22.40
2017-06-12T15:20:30.772Z,23.50
2017-06-12T15:22:57.398Z,21.30
2017-06-12T15:25:24.019Z,21.60
2017-06-12T15:27:50.323Z,21.60
2017-06-12T15:30:16.694Z,22.90
2017-06-12T15:32:43.360Z,23.40
2017-06-12T15:35:09.628Z,23.40
2017-06-12T15:37:35.921Z,23.40
2017-06-12T15:40:02.193Z,22.80
2017-06-12T15:42:28.438Z,23.10
2017-06-12T15:44:54.760Z,23.00
2017-06-12T15:47:21.024Z,24.10
2017-06-12T15:49:47.288Z,23.10
2017-06-12T15:52:13.771Z,23.50
2017-06-12T15:54:40.037Z,22.50
2017-06-12T15:57:06.333Z,22.90
2017-06-12T15:59:32.640Z,22.70
2017-06-12T16:01:58.929Z,22.70
2017-06-12T16:04:25.320Z,21.70
2017-06-12T16:06:51.564Z,22.10
2017-06-12T16:09:18.233Z,22.20
2017-06-12T16:11:44.521Z,22.20
2017-06-12T16:14:10.832Z,21.90
2017-06-12T16:16:38.178Z,21.90
2017-06-12T16:19:04.538Z,22.00
2017-06-12T16:21:31.185Z,21.00
2017-06-12T16:23:57.419Z,21.00
2017-06-12T16:26:23.697Z,21.40
2017-06-12T16:28:49.992Z,20.30
2017-06-12T16:31:16.304Z,20.80
2017-06-12T16:33:42.599Z,21.50
2017-06-12T16:36:08.937Z,21.50
2017-06-12T16:38:35.228Z,20.70
2017-06-12T16:41:01.497Z,21.20
2017-06-12T16:43:27.760Z,21.30
2017-06-12T16:45:54.025Z,21.30
2017-06-12T16:48:20.320Z,21.60
2017-06-12T16:50:46.611Z,20.70
2017-06-12T16:53:12.898Z,21.50
2017-06-12T16:55:39.203Z,19.80
2017-06-12T16:58:05.522Z,20.60
2017-06-12T17:00:31.821Z,20.40
2017-06-12T17:02:58.096Z,21.00
2017-06-12T17:05:24.407Z,21.80
2017-06-12T17:07:50.701Z,27.70
2017-06-12T17:10:16.996Z,29.10
2017-06-12T17:12:43.261Z,30.60
2017-06-12T17:15:09.525Z,33.70
2017-06-12T17:17:35.868Z,35.40
2017-06-12T17:20:02.156Z,36.00
2017-06-12T17:22:28.440Z,38.20
2017-06-12T17:24:54.766Z,38.70
2017-06-12T17:27:21.062Z,45.60
2017-06-12T17:29:47.376Z,41.20
2017-06-12T17:32:13.651Z,43.50
2017-06-12T17:34:39.930Z,41.40
2017-06-12T17:37:06.193Z,43.00
2017-06-12T17:39:32.508Z,43.40
2017-06-12T17:41:58.778Z,45.20
2017-06-12T17:44:25.057Z,42.10
2017-06-12T17:46:51.371Z,43.00
2017-06-12T17:49:18.118Z,43.90
2017-06-12T17:51:45.358Z,43.90
2017-06-12T17:54:11.658Z,41.40
2017-06-12T17:56:37.936Z,45.40
2017-06-12T17:59:04.205Z,46.20
2017-06-12T18:01:30.514Z,42.30
2017-06-12T18:03:56.781Z,43.70
2017-06-12T18:06:23.065Z,41.90
2017-06-12T18:08:49.323Z,44.00
2017-06-12T18:11:15.962Z,38.90
2017-06-12T18:13:42.218Z,37.40
2017-06-12T18:16:08.489Z,32.70
2017-06-12T18:18:34.765Z,32.50
2017-06-12T18:21:01.066Z,32.50
2017-06-12T18:23:27.713Z,34.00
2017-06-12T18:25:54.008Z,34.00
2017-06-12T18:28:20.297Z,36.40
2017-06-12T18:30:46.634Z,38.00
2017-06-12T18:33:13.047Z,42.20
2017-06-12T18:35:39.317Z,40.90
2017-06-12T18:38:05.586Z,43.50
2017-06-12T18:40:31.911Z,41.00
2017-06-12T18:42:58.882Z,43.30
2017-06-12T18:45:25.184Z,43.30
2017-06-12T18:47:51.837Z,44.70
2017-06-12T18:50:18.129Z,44.80
2017-06-12T18:52:44.441Z,44.40
2017-06-12T18:55:10.703Z,45.80
2017-06-12T18:57:37.018Z,47.10
2017-06-12T19:00:03.348Z,45.80
2017-06-12T19:02:29.661Z,45.90
2017-06-12T19:04:56.711Z,44.90
2017-06-12T19:07:22.975Z,47.60
2017-06-12T19:09:49.277Z,47.70
2017-06-12T19:12:15.561Z,47.50
2017-06-12T19:14:42.438Z,48.10
2017-06-12T19:17:08.717Z,48.10
2017-06-12T19:19:35.002Z,46.90
2017-06-12T19:22:01.487Z,47.90
2017-06-12T19:24:27.807Z,48.50
2017-06-12T19:26:54.157Z,48.10
2017-06-12T19:29:20.398Z,48.20
2017-06-12T19:31:47.055Z,49.00
2017-06-12T19:34:13.312Z,50.40
2017-06-12T19:36:39.685Z,48.60
2017-06-12T19:39:06.019Z,48.70
2017-06-12T19:41:32.621Z,48.20
2017-06-12T19:43:58.914Z,48.80
2017-06-12T19:46:25.980Z,49.20
2017-06-12T19:48:52.257Z,50.10
2017-06-12T19:51:18.515Z,50.20
2017-06-12T19:53:45.378Z,50.90
2017-06-12T19:56:11.738Z,49.70
2017-06-12T19:58:38.035Z,50.50
2017-06-12T20:01:04.422Z,50.20
2017-06-12T20:03:30.769Z,50.30
2017-06-12T20:05:57.057Z,51.90
2017-06-12T20:08:23.893Z,51.90
2017-06-12T20:10:50.735Z,52.80
2017-06-12T20:13:17.160Z,52.80
2017-06-12T20:15:43.481Z,52.90
2017-06-12T20:18:09.817Z,52.90
2017-06-12T20:20:36.097Z,53.50
2017-06-12T20:23:02.425Z,53.70
2017-06-12T20:25:28.829Z,53.50
2017-06-12T20:27:55.156Z,53.30
2017-06-12T20:30:21.870Z,54.60
2017-06-12T20:32:48.168Z,54.60
2017-06-12T20:35:14.505Z,55.30
2017-06-12T20:37:40.810Z,55.60
2017-06-12T20:40:07.123Z,55.70
2017-06-12T20:42:33.875Z,54.60
2017-06-12T20:45:00.206Z,54.60
2017-06-12T20:47:26.534Z,54.80
2017-06-12T20:49:53.054Z,55.30
2017-06-12T20:52:20.573Z,56.40
2017-06-12T20:54:46.891Z,56.50
2017-06-12T20:57:13.787Z,56.00
2017-06-12T20:59:41.740Z,55.90
2017-06-12T21:02:09.114Z,56.00
2017-06-12T21:04:42.250Z,56.20
2017-06-12T21:07:09.833Z,54.90
2017-06-12T21:09:43.426Z,56.90
2017-06-12T21:12:11.271Z,57.10
2017-06-12T21:14:37.576Z,56.60
2017-06-12T21:17:04.804Z,56.90
2017-06-12T21:19:34.153Z,56.90
2017-06-12T21:22:02.053Z,57.10
2017-06-12T21:24:28.398Z,58.50
2017-06-12T21:26:55.561Z,57.60
2017-06-12T21:29:23.586Z,58.90
2017-06-12T21:31:50.752Z,57.90
2017-06-12T21:34:18.094Z,58.10
2017-06-12T21:36:46.188Z,58.70
2017-06-12T21:39:13.965Z,59.70
2017-06-12T21:41:40.304Z,59.60
2017-06-12T21:44:06.598Z,60.50
2017-06-12T21:46:32.901Z,59.80
2017-06-12T21:48:59.210Z,59.60
2017-06-12T21:51:26.123Z,60.20
2017-06-12T21:53:53.352Z,60.10
2017-06-12T21:56:20.498Z,59.10
2017-06-12T21:58:50.983Z,59.60
2017-06-12T22:01:18.390Z,58.30
2017-06-12T22:03:46.000Z,58.90
2017-06-12T22:06:14.322Z,59.70
2017-06-12T22:08:42.160Z,59.20
2017-06-12T22:11:08.458Z,58.80
2017-06-12T22:13:35.339Z,58.60
2017-06-12T22:16:01.706Z,58.70
2017-06-12T22:18:28.020Z,58.90
2017-06-12T22:20:54.346Z,58.70
2017-06-12T22:23:20.641Z,60.10
2017-06-12T22:25:48.229Z,58.80
2017-06-12T22:28:14.580Z,60.00
2017-06-12T22:30:40.918Z,59.30
2017-06-12T22:35:41.389Z,59.30
2017-06-12T22:40:41.614Z,60.10
2017-06-12T22:43:08.845Z,59.60
2017-06-12T22:45:36.250Z,59.50
2017-06-12T22:48:04.712Z,59.90
2017-06-12T22:50:32.256Z,59.60
2017-06-12T22:52:59.528Z,60.10
2017-06-12T22:55:25.866Z,60.10
2017-06-12T22:57:55.508Z,60.20
2017-06-12T23:00:21.800Z,59.10
2017-06-12T23:02:51.293Z,59.40
2017-06-12T23:05:19.546Z,58.90
2017-06-12T23:07:45.864Z,58.90
2017-06-12T23:10:18.143Z,59.90
2017-06-12T23:12:46.740Z,60.20
2017-06-12T23:15:13.178Z,60.70
2017-06-12T23:17:41.629Z,61.10
2017-06-12T23:20:07.934Z,62.00
2017-06-12T23:22:34.242Z,61.20
2017-06-12T23:25:00.562Z,61.00
2017-06-12T23:27:32.961Z,61.00
2017-06-12T23:29:59.265Z,61.80
2017-06-12T23:32:25.536Z,61.90
2017-06-12T23:34:51.826Z,61.60
2017-06-12T23:37:18.128Z,60.90
2017-06-12T23:39:44.429Z,59.80
2017-06-12T23:42:10.753Z,59.50
2017-06-12T23:44:37.050Z,59.20
2017-06-12T23:47:03.349Z,58.00
2017-06-12T23:49:29.746Z,60.10
2017-06-12T23:51:56.084Z,59.00
2017-06-12T23:54:22.389Z,61.30
2017-06-12T23:56:49.673Z,62.50
2017-06-12T23:59:15.966Z,60.60
